createdAt,value
2023-03-17T00:00:55.974Z,6.67
2023-03-17T00:02:57.532Z,6.67
2023-03-17T00:04:59.174Z,6.66
2023-03-17T00:07:05.279Z,6.65
2023-03-17T00:09:11.983Z,6.66
2023-03-17T00:11:17.469Z,6.65
2023-03-17T00:13:20.229Z,6.64
2023-03-17T00:15:23.774Z,6.63
2023-03-17T00:17:25.281Z,6.64
2023-03-17T00:19:33.154Z,6.63
2023-03-17T00:21:35.693Z,6.62
2023-03-17T00:23:37.383Z,6.61
2023-03-17T00:25:40.811Z,6.61
2023-03-17T00:27:42.660Z,6.61
2023-03-17T00:29:44.739Z,6.61
2023-03-17T00:31:47.069Z,6.57
2023-03-17T00:33:51.413Z,6.58
2023-03-17T00:35:53.463Z,6.56
2023-03-17T00:37:58.462Z,6.55
2023-03-17T00:40:00.033Z,6.56
2023-03-17T00:42:03.136Z,6.56
2023-03-17T00:44:07.124Z,6.56
2023-03-17T00:46:13.130Z,6.54
2023-03-17T00:48:17.224Z,6.53
2023-03-17T00:50:21.571Z,6.52
2023-03-17T00:52:23.248Z,6.52
2023-03-17T00:54:25.354Z,6.52
2023-03-17T00:56:27.454Z,6.51
2023-03-17T00:58:34.188Z,6.51
2023-03-17T01:00:36.031Z,6.50
2023-03-17T01:02:37.934Z,6.50
2023-03-17T01:04:40.301Z,6.48
2023-03-17T01:06:42.603Z,6.48
2023-03-17T01:08:44.683Z,6.48
2023-03-17T01:10:46.806Z,6.46
2023-03-17T01:12:48.650Z,6.46
2023-03-17T01:14:51.735Z,6.45
2023-03-17T01:16:53.280Z,6.45
2023-03-17T01:18:57.588Z,6.44
2023-03-17T01:20:59.473Z,6.43
2023-03-17T01:23:02.352Z,6.43
2023-03-17T01:25:04.293Z,6.41
2023-03-17T01:27:06.354Z,6.42
2023-03-17T01:29:08.046Z,6.42
2023-03-17T01:31:11.482Z,6.41
2023-03-17T01:33:14.001Z,6.41
2023-03-17T01:35:16.542Z,6.39
2023-03-17T01:37:18.567Z,6.40
2023-03-17T01:39:20.829Z,6.41
2023-03-17T01:41:22.557Z,6.40
2023-03-17T01:43:26.955Z,6.41
2023-03-17T01:46:06.284Z,6.41
2023-03-17T01:48:09.722Z,6.40
2023-03-17T01:50:13.489Z,6.40
2023-03-17T01:52:20.213Z,6.40
2023-03-17T01:54:28.700Z,6.39
2023-03-17T01:56:31.730Z,6.39
2023-03-17T01:58:33.966Z,6.38
2023-03-17T02:00:36.077Z,6.39
2023-03-17T02:02:41.619Z,6.38
2023-03-17T02:04:46.268Z,6.37
2023-03-17T02:07:05.042Z,6.36
2023-03-17T02:09:09.420Z,6.35
2023-03-17T02:11:11.017Z,6.34
2023-03-17T02:13:14.439Z,6.34
2023-03-17T02:15:17.620Z,6.33
2023-03-17T02:17:20.305Z,6.32
2023-03-17T02:19:22.307Z,6.30
2023-03-17T02:21:43.257Z,6.32
2023-03-17T02:23:45.334Z,6.30
2023-03-17T02:25:47.762Z,6.29
2023-03-17T02:27:53.385Z,6.27
2023-03-17T02:29:54.980Z,6.28
2023-03-17T02:31:56.644Z,6.24
2023-03-17T02:33:58.241Z,6.24
2023-03-17T02:35:59.862Z,6.23
2023-03-17T02:38:02.860Z,6.20
2023-03-17T02:40:05.491Z,6.17
2023-03-17T02:42:07.856Z,6.15
2023-03-17T02:44:09.516Z,6.16
2023-03-17T02:46:12.908Z,6.14
2023-03-17T02:48:15.448Z,6.12
2023-03-17T02:50:20.308Z,6.13
2023-03-17T02:52:21.954Z,6.08
2023-03-17T02:54:25.126Z,6.08
2023-03-17T02:56:27.933Z,6.07
2023-03-17T02:58:29.785Z,6.06
2023-03-17T03:00:31.708Z,6.03
2023-03-17T03:02:33.642Z,6.04
2023-03-17T03:04:35.500Z,6.02
2023-03-17T03:06:37.566Z,6.02
2023-03-17T03:08:39.600Z,5.98
2023-03-17T03:10:43.429Z,5.99
2023-03-17T03:12:45.172Z,5.99
2023-03-17T03:14:47.303Z,5.97
2023-03-17T03:16:49.204Z,5.94
2023-03-17T03:18:50.999Z,5.95
2023-03-17T03:20:53.006Z,5.94
2023-03-17T03:22:55.116Z,5.91
2023-03-17T03:24:57.236Z,5.91
2023-03-17T03:27:00.576Z,5.90
2023-03-17T03:29:02.402Z,5.88
2023-03-17T03:31:04.267Z,5.89
2023-03-17T03:33:08.538Z,5.86
2023-03-17T03:35:10.587Z,5.85
2023-03-17T03:37:16.108Z,5.84
2023-03-17T03:39:17.759Z,5.82
2023-03-17T03:41:19.647Z,5.81
2023-03-17T03:43:25.151Z,5.79
2023-03-17T03:45:27.336Z,5.79
2023-03-17T03:47:31.187Z,5.78
2023-03-17T03:49:32.710Z,5.77
2023-03-17T03:51:34.617Z,5.75
2023-03-17T03:53:36.493Z,5.72
2023-03-17T03:55:38.149Z,5.71
2023-03-17T03:57:40.010Z,5.68
2023-03-17T03:59:43.309Z,5.67
2023-03-17T04:01:45.145Z,5.66
2023-03-17T04:03:46.759Z,5.65
2023-03-17T04:05:48.488Z,5.63
2023-03-17T04:07:50.619Z,5.61
2023-03-17T04:09:52.139Z,5.59
2023-03-17T04:11:55.685Z,5.56
2023-03-17T04:13:57.291Z,5.54
2023-03-17T04:16:00.500Z,5.54
2023-03-17T04:18:03.843Z,5.52
2023-03-17T04:20:06.965Z,5.50
2023-03-17T04:22:11.447Z,5.49
2023-03-17T04:24:13.222Z,5.45
2023-03-17T04:26:15.056Z,5.47
2023-03-17T04:28:16.656Z,5.44
2023-03-17T04:30:18.581Z,5.45
2023-03-17T04:32:22.421Z,5.44
2023-03-17T04:34:24.036Z,5.43
2023-03-17T04:36:26.113Z,5.43
2023-03-17T04:38:30.768Z,5.42
2023-03-17T04:40:33.646Z,5.40
2023-03-17T04:42:35.613Z,5.42
2023-03-17T04:44:37.824Z,5.39
2023-03-17T04:46:39.634Z,5.39
2023-03-17T04:48:42.936Z,5.38
2023-03-17T04:50:44.472Z,5.38
2023-03-17T04:52:46.802Z,5.37
2023-03-17T04:54:48.772Z,5.35
2023-03-17T04:56:50.901Z,5.38
2023-03-17T04:58:53.020Z,5.37
2023-03-17T05:00:54.684Z,5.36
2023-03-17T05:02:56.592Z,5.36
2023-03-17T05:04:59.664Z,5.34
2023-03-17T05:07:01.737Z,5.33
2023-03-17T05:09:03.832Z,5.32
2023-03-17T05:11:06.279Z,5.32
2023-03-17T05:13:08.138Z,5.30
2023-03-17T05:15:11.222Z,5.32
2023-03-17T05:17:12.787Z,5.32
2023-03-17T05:19:14.616Z,5.30
2023-03-17T05:21:17.706Z,5.30
2023-03-17T05:23:19.770Z,5.30
2023-03-17T05:25:21.594Z,5.29
2023-03-17T05:27:23.490Z,5.28
2023-03-17T05:29:25.146Z,5.28
2023-03-17T05:31:26.809Z,5.26
2023-03-17T05:33:29.000Z,5.24
2023-03-17T05:35:30.726Z,5.25
2023-03-17T05:37:33.686Z,5.22
2023-03-17T05:39:35.509Z,5.24
2023-03-17T05:41:37.484Z,5.22
2023-03-17T05:43:39.504Z,5.23
2023-03-17T05:45:41.248Z,5.21
2023-03-17T05:47:43.463Z,5.22
2023-03-17T05:49:45.014Z,5.21
2023-03-17T05:51:46.787Z,5.21
2023-03-17T05:53:51.482Z,5.21
2023-03-17T05:55:54.531Z,5.22
2023-03-17T05:57:56.555Z,5.22
2023-03-17T05:59:58.174Z,5.23
2023-03-17T06:02:00.398Z,5.22
2023-03-17T06:04:03.522Z,5.23
2023-03-17T06:06:05.937Z,5.25
2023-03-17T06:08:07.659Z,5.25
2023-03-17T06:10:11.963Z,5.26
2023-03-17T06:12:13.931Z,5.26
2023-03-17T06:14:15.781Z,5.27
2023-03-17T06:16:17.415Z,5.26
2023-03-17T06:18:21.470Z,5.27
2023-03-17T06:20:22.991Z,5.31
2023-03-17T06:22:26.085Z,5.31
2023-03-17T06:24:29.215Z,5.31
2023-03-17T06:26:32.105Z,5.33
2023-03-17T06:28:34.213Z,5.31
2023-03-17T06:30:40.013Z,5.31
2023-03-17T06:32:43.822Z,5.32
2023-03-17T06:34:45.486Z,5.33
2023-03-17T06:36:47.470Z,5.34
2023-03-17T06:38:49.326Z,5.35
2023-03-17T06:40:50.925Z,5.37
2023-03-17T06:42:56.324Z,5.39
2023-03-17T06:44:59.383Z,5.40
2023-03-17T06:47:00.928Z,5.43
2023-03-17T06:49:03.313Z,5.45
2023-03-17T06:51:06.016Z,5.46
2023-03-17T06:53:07.629Z,5.47
2023-03-17T06:55:10.480Z,5.48
2023-03-17T06:57:12.375Z,5.51
2023-03-17T06:59:15.486Z,5.53
2023-03-17T07:01:18.178Z,5.56
2023-03-17T07:03:20.743Z,5.57
2023-03-17T07:05:22.948Z,5.60
2023-03-17T07:07:24.774Z,5.63
2023-03-17T07:09:26.776Z,5.66
2023-03-17T07:11:28.452Z,5.69
2023-03-17T07:13:30.437Z,5.71
2023-03-17T07:15:33.645Z,5.74
2023-03-17T07:17:35.842Z,5.77
2023-03-17T07:19:38.168Z,5.79
2023-03-17T07:21:39.913Z,5.83
2023-03-17T07:23:42.545Z,5.89
2023-03-17T07:25:45.661Z,5.91
2023-03-17T07:27:50.122Z,5.97
2023-03-17T07:29:53.641Z,6.00
2023-03-17T07:31:57.582Z,6.04
2023-03-17T07:33:59.513Z,6.10
2023-03-17T07:36:01.695Z,6.14
2023-03-17T07:38:03.429Z,6.18
2023-03-17T07:40:06.257Z,6.23
2023-03-17T07:42:10.094Z,6.31
2023-03-17T07:44:12.389Z,6.34
2023-03-17T07:46:14.116Z,6.40
2023-03-17T07:48:17.388Z,6.44
2023-03-17T07:50:19.454Z,6.48
2023-03-17T07:52:21.262Z,6.53
2023-03-17T07:54:22.857Z,6.57
2023-03-17T07:56:24.627Z,6.59
2023-03-17T07:58:26.755Z,6.65
2023-03-17T08:00:28.592Z,6.67
2023-03-17T08:02:30.873Z,6.71
2023-03-17T08:04:34.051Z,6.75
2023-03-17T08:06:36.637Z,6.80
2023-03-17T08:08:38.554Z,6.83
2023-03-17T08:10:40.762Z,6.88
2023-03-17T08:12:44.789Z,6.92
2023-03-17T08:14:46.932Z,6.96
2023-03-17T08:16:48.920Z,7.00
2023-03-17T08:18:50.572Z,7.03
2023-03-17T08:20:53.910Z,7.06
2023-03-17T08:22:55.698Z,7.10
2023-03-17T08:24:57.607Z,7.12
2023-03-17T08:27:00.844Z,7.14
2023-03-17T08:29:02.647Z,7.16
2023-03-17T08:31:12.346Z,7.18
2023-03-17T08:33:14.639Z,7.19
2023-03-17T08:35:17.667Z,7.22
2023-03-17T08:37:21.095Z,7.25
2023-03-17T08:39:25.119Z,7.24
2023-03-17T08:41:28.243Z,7.28
2023-03-17T08:43:30.253Z,7.29
2023-03-17T08:45:32.711Z,7.30
2023-03-17T08:47:34.465Z,7.34
2023-03-17T08:49:36.426Z,7.36
2023-03-17T08:51:39.826Z,7.37
2023-03-17T08:53:43.103Z,7.40
2023-03-17T08:55:44.952Z,7.42
2023-03-17T08:57:46.824Z,7.45
2023-03-17T08:59:49.245Z,7.47
2023-03-17T09:01:51.456Z,7.51
2023-03-17T09:03:54.737Z,7.55
2023-03-17T09:05:56.931Z,7.57
2023-03-17T09:07:58.522Z,7.59
2023-03-17T09:10:01.687Z,7.61
2023-03-17T09:12:05.197Z,7.64
2023-03-17T09:14:06.904Z,7.69
2023-03-17T09:16:09.066Z,7.71
2023-03-17T09:18:10.981Z,7.75
2023-03-17T09:20:13.125Z,7.79
2023-03-17T09:22:16.667Z,7.85
2023-03-17T09:24:19.457Z,7.91
2023-03-17T09:26:23.819Z,7.98
2023-03-17T09:28:30.653Z,8.05
2023-03-17T09:30:33.464Z,8.11
2023-03-17T09:32:35.395Z,8.15
2023-03-17T09:34:38.720Z,8.23
2023-03-17T09:36:40.832Z,8.31
2023-03-17T09:38:42.445Z,8.43
2023-03-17T09:40:48.452Z,8.51
2023-03-17T09:43:02.064Z,8.59
2023-03-17T09:45:14.391Z,8.67
2023-03-17T09:47:35.224Z,8.80
2023-03-17T09:49:42.467Z,8.94
2023-03-17T09:51:45.604Z,9.04
2023-03-17T09:53:54.454Z,9.13
2023-03-17T09:55:59.031Z,9.22
2023-03-17T09:58:04.147Z,9.33
2023-03-17T10:00:12.663Z,9.39
2023-03-17T10:02:21.981Z,9.48
2023-03-17T10:04:23.728Z,9.57
2023-03-17T10:06:35.348Z,9.67
2023-03-17T10:08:43.639Z,9.76
2023-03-17T10:10:49.487Z,9.85
2023-03-17T10:13:02.217Z,9.92
2023-03-17T10:15:14.097Z,10.05
2023-03-17T10:17:18.821Z,10.20
2023-03-17T10:19:26.982Z,10.34
2023-03-17T10:21:32.331Z,10.47
2023-03-17T10:23:36.202Z,10.63
2023-03-17T10:25:38.464Z,10.79
2023-03-17T10:27:42.906Z,10.89
2023-03-17T10:29:48.274Z,11.01
2023-03-17T10:31:55.182Z,11.14
2023-03-17T10:34:04.240Z,11.24
2023-03-17T10:36:10.559Z,11.33
2023-03-17T10:38:18.071Z,11.43
2023-03-17T10:40:23.314Z,11.47
2023-03-17T10:42:27.048Z,11.55
2023-03-17T10:44:39.127Z,11.61
2023-03-17T10:46:40.699Z,11.62
2023-03-17T10:48:51.170Z,11.65
2023-03-17T10:50:56.428Z,11.68
2023-03-17T10:53:00.513Z,11.73
2023-03-17T10:55:05.297Z,11.76
2023-03-17T10:57:08.607Z,11.83
2023-03-17T10:59:19.119Z,11.92
2023-03-17T11:01:30.646Z,11.99
2023-03-17T11:03:37.041Z,12.09
2023-03-17T11:05:40.511Z,12.13
2023-03-17T11:07:42.068Z,12.19
2023-03-17T11:09:43.793Z,12.26
2023-03-17T11:11:47.778Z,12.31
2023-03-17T11:13:49.635Z,12.36
2023-03-17T11:15:58.552Z,12.41
2023-03-17T11:18:02.502Z,12.42
2023-03-17T11:20:20.267Z,12.42
2023-03-17T11:22:32.226Z,12.43
2023-03-17T11:24:38.463Z,12.42
2023-03-17T11:26:59.494Z,12.45
2023-03-17T11:29:22.766Z,12.43
2023-03-17T11:31:30.854Z,12.43
2023-03-17T11:33:38.601Z,12.41
2023-03-17T11:35:49.542Z,12.43
2023-03-17T11:38:16.316Z,12.45
2023-03-17T11:40:33.406Z,12.45
2023-03-17T11:42:46.857Z,12.44
2023-03-17T11:45:11.867Z,12.47
2023-03-17T11:47:27.587Z,12.49
2023-03-17T11:49:36.555Z,12.54
2023-03-17T11:51:57.231Z,12.60
2023-03-17T11:54:24.377Z,12.64
2023-03-17T11:56:33.915Z,12.64
2023-03-17T11:58:39.692Z,12.68
2023-03-17T12:00:46.483Z,12.75
2023-03-17T12:02:54.779Z,12.82
2023-03-17T12:05:01.796Z,12.90
2023-03-17T12:07:20.845Z,12.94
2023-03-17T12:09:31.977Z,12.96
2023-03-17T12:11:40.618Z,12.96
2023-03-17T12:13:46.698Z,12.99
2023-03-17T12:15:53.026Z,12.97
2023-03-17T12:17:59.359Z,13.01
2023-03-17T12:20:12.487Z,13.05
2023-03-17T12:22:23.636Z,13.09
2023-03-17T12:24:35.766Z,13.12
2023-03-17T12:26:43.416Z,13.17
2023-03-17T12:28:50.563Z,13.24
2023-03-17T12:30:55.879Z,13.31
2023-03-17T12:33:04.672Z,13.38
2023-03-17T12:35:23.554Z,13.46
2023-03-17T12:37:27.250Z,13.53
2023-03-17T12:39:33.803Z,13.61
2023-03-17T12:42:01.290Z,13.72
2023-03-17T12:44:13.966Z,13.80
2023-03-17T12:46:37.461Z,13.92
2023-03-17T12:49:30.809Z,14.09
2023-03-17T12:51:49.744Z,14.11
2023-03-17T12:53:52.585Z,14.13
2023-03-17T12:56:02.876Z,14.17
2023-03-17T12:58:15.925Z,14.20
2023-03-17T13:00:23.589Z,14.23
2023-03-17T13:02:35.519Z,14.28
2023-03-17T13:04:38.643Z,14.29
2023-03-17T13:06:46.466Z,14.34
2023-03-17T13:08:50.287Z,14.37
2023-03-17T13:11:19.057Z,14.40
2023-03-17T13:13:36.175Z,14.41
2023-03-17T13:15:58.013Z,14.37
2023-03-17T13:18:31.316Z,14.35
2023-03-17T13:20:37.565Z,14.28
2023-03-17T13:22:41.204Z,14.27
2023-03-17T13:24:46.942Z,14.27
2023-03-17T13:26:57.833Z,14.28
2023-03-17T13:29:03.196Z,14.28
2023-03-17T13:31:11.828Z,14.30
2023-03-17T13:33:21.654Z,14.33
2023-03-17T13:35:38.674Z,14.36
2023-03-17T13:37:57.068Z,14.41
2023-03-17T13:40:14.516Z,14.46
2023-03-17T13:42:31.244Z,14.48
2023-03-17T13:45:11.997Z,14.49
2023-03-17T13:47:33.901Z,14.51
2023-03-17T13:49:35.779Z,14.51
2023-03-17T13:51:56.493Z,14.53
2023-03-17T13:54:08.948Z,14.56
2023-03-17T13:56:16.758Z,14.59
2023-03-17T13:58:33.185Z,14.64
2023-03-17T14:00:38.224Z,14.66
2023-03-17T14:02:41.300Z,14.71
2023-03-17T14:04:53.182Z,14.76
2023-03-17T14:06:58.314Z,14.77
2023-03-17T14:09:07.212Z,14.82
2023-03-17T14:11:20.908Z,14.87
2023-03-17T14:13:27.029Z,14.89
2023-03-17T14:15:34.135Z,14.92
2023-03-17T14:17:42.837Z,14.94
2023-03-17T14:20:00.627Z,14.95
2023-03-17T14:22:03.032Z,14.93
2023-03-17T14:24:19.060Z,14.91
2023-03-17T14:26:24.019Z,14.88
2023-03-17T14:28:30.476Z,14.87
2023-03-17T14:30:37.172Z,14.82
2023-03-17T14:32:39.084Z,14.81
2023-03-17T14:34:43.898Z,14.79
2023-03-17T14:36:45.525Z,14.76
2023-03-17T14:38:49.940Z,14.73
2023-03-17T14:41:01.971Z,14.72
2023-03-17T14:43:05.773Z,14.69
2023-03-17T14:45:21.680Z,14.70
2023-03-17T14:47:25.930Z,14.68
2023-03-17T14:49:28.942Z,14.66
2023-03-17T14:51:35.086Z,14.67
2023-03-17T14:53:40.873Z,14.66
2023-03-17T14:55:44.447Z,14.66
2023-03-17T14:57:50.168Z,14.68
2023-03-17T15:00:17.548Z,14.68
2023-03-17T15:02:24.291Z,14.67
2023-03-17T15:04:53.498Z,14.68
2023-03-17T15:06:57.373Z,14.66
2023-03-17T15:09:01.454Z,14.63
2023-03-17T15:11:05.604Z,14.63
2023-03-17T15:13:12.529Z,14.61
2023-03-17T15:15:23.644Z,14.59
2023-03-17T15:17:31.200Z,14.57
2023-03-17T15:19:38.953Z,14.53
2023-03-17T15:21:43.192Z,14.50
2023-03-17T15:23:45.045Z,14.48
2023-03-17T15:25:49.254Z,14.46
2023-03-17T15:27:52.110Z,14.48
2023-03-17T15:29:53.833Z,14.49
2023-03-17T15:32:02.866Z,14.49
2023-03-17T15:34:06.140Z,14.47
2023-03-17T15:36:29.353Z,14.47
2023-03-17T15:38:33.719Z,14.45
2023-03-17T15:40:35.505Z,14.44
2023-03-17T15:42:39.152Z,14.42
2023-03-17T15:44:40.843Z,14.39
2023-03-17T15:46:42.573Z,14.34
2023-03-17T15:48:44.289Z,14.30
2023-03-17T15:50:48.745Z,14.26
2023-03-17T15:52:50.902Z,14.17
2023-03-17T15:54:54.166Z,14.13
2023-03-17T15:56:56.053Z,14.09
2023-03-17T15:58:58.062Z,14.04
2023-03-17T16:00:59.711Z,13.99
2023-03-17T16:03:08.917Z,13.95
2023-03-17T16:05:16.892Z,13.91
2023-03-17T16:07:20.187Z,13.83
2023-03-17T16:09:23.684Z,13.79
2023-03-17T16:11:29.727Z,13.77
2023-03-17T16:13:31.609Z,13.73
2023-03-17T16:15:37.777Z,13.68
2023-03-17T16:17:41.074Z,13.63
2023-03-17T16:19:42.813Z,13.60
2023-03-17T16:21:45.456Z,13.56
2023-03-17T16:23:49.990Z,13.54
2023-03-17T16:25:52.657Z,13.49
2023-03-17T16:27:57.900Z,13.46
2023-03-17T16:29:59.574Z,13.42
2023-03-17T16:32:01.199Z,13.39
2023-03-17T16:34:03.122Z,13.33
2023-03-17T16:36:05.946Z,13.28
2023-03-17T16:38:10.809Z,13.24
2023-03-17T16:40:20.499Z,13.21
2023-03-17T16:42:22.634Z,13.14
2023-03-17T16:44:24.241Z,13.11
2023-03-17T16:46:26.801Z,13.08
2023-03-17T16:48:29.965Z,13.03
2023-03-17T16:50:34.047Z,13.00
2023-03-17T16:52:39.447Z,12.96
2023-03-17T16:54:41.080Z,12.92
2023-03-17T16:56:45.142Z,12.88
2023-03-17T16:58:47.816Z,12.82
2023-03-17T17:00:52.434Z,12.79
2023-03-17T17:02:55.241Z,12.75
2023-03-17T17:04:56.912Z,12.68
2023-03-17T17:06:58.528Z,12.64
2023-03-17T17:09:00.085Z,12.62
2023-03-17T17:11:01.747Z,12.57
2023-03-17T17:13:07.766Z,12.52
2023-03-17T17:15:11.623Z,12.48
2023-03-17T17:17:13.354Z,12.42
2023-03-17T17:19:16.849Z,12.37
2023-03-17T17:21:18.548Z,12.34
2023-03-17T17:23:22.870Z,12.30
2023-03-17T17:25:26.665Z,12.27
2023-03-17T17:27:28.739Z,12.23
2023-03-17T17:29:32.508Z,12.20
2023-03-17T17:31:34.470Z,12.16
2023-03-17T17:33:40.014Z,12.12
2023-03-17T17:35:43.332Z,12.09
2023-03-17T17:37:44.924Z,12.06
2023-03-17T17:39:46.743Z,12.02
2023-03-17T17:41:48.349Z,11.99
2023-03-17T17:43:50.470Z,11.96
2023-03-17T17:45:54.962Z,11.94
2023-03-17T17:47:56.522Z,11.89
2023-03-17T17:49:59.660Z,11.87
2023-03-17T17:52:01.295Z,11.85
2023-03-17T17:54:02.910Z,11.81
2023-03-17T17:56:04.739Z,11.79
2023-03-17T17:58:06.368Z,11.75
2023-03-17T18:00:12.260Z,11.72
2023-03-17T18:02:15.281Z,11.69
2023-03-17T18:04:18.757Z,11.68
2023-03-17T18:06:20.632Z,11.63
2023-03-17T18:08:23.746Z,11.60
2023-03-17T18:10:27.212Z,11.57
2023-03-17T18:12:28.957Z,11.54
2023-03-17T18:14:30.787Z,11.51
2023-03-17T18:16:32.554Z,11.48
2023-03-17T18:18:35.833Z,11.45
2023-03-17T18:20:39.693Z,11.42
2023-03-17T18:22:41.461Z,11.37
2023-03-17T18:24:43.254Z,11.34
2023-03-17T18:26:45.710Z,11.31
2023-03-17T18:28:48.062Z,11.26
2023-03-17T18:30:50.186Z,11.23
2023-03-17T18:32:55.398Z,11.19
2023-03-17T18:35:01.935Z,11.16
2023-03-17T18:37:04.298Z,11.12
2023-03-17T18:39:06.413Z,11.09
2023-03-17T18:41:08.552Z,11.05
2023-03-17T18:43:10.862Z,11.03
2023-03-17T18:45:13.313Z,11.00
2023-03-17T18:47:15.228Z,10.97
2023-03-17T18:49:17.501Z,10.95
2023-03-17T18:51:20.649Z,10.94
2023-03-17T18:53:22.234Z,10.91
2023-03-17T18:55:23.956Z,10.89
2023-03-17T18:57:26.295Z,10.89
2023-03-17T18:59:28.297Z,10.85
2023-03-17T19:01:30.304Z,10.84
2023-03-17T19:03:32.057Z,10.82
2023-03-17T19:05:35.558Z,10.80
2023-03-17T19:07:40.347Z,10.79
2023-03-17T19:09:42.416Z,10.77
2023-03-17T19:11:44.500Z,10.75
2023-03-17T19:13:46.379Z,10.75
2023-03-17T19:15:48.202Z,10.75
2023-03-17T19:17:50.078Z,10.73
2023-03-17T19:19:51.674Z,10.73
2023-03-17T19:21:53.369Z,10.73
2023-03-17T19:23:59.119Z,10.72
2023-03-17T19:26:00.848Z,10.71
2023-03-17T19:28:05.366Z,10.71
2023-03-17T19:30:09.932Z,10.70
2023-03-17T19:32:12.068Z,10.69
2023-03-17T19:34:14.029Z,10.69
2023-03-17T19:36:15.918Z,10.70
2023-03-17T19:38:18.049Z,10.69
2023-03-17T19:40:21.392Z,10.68
2023-03-17T19:42:23.013Z,10.67
2023-03-17T19:44:24.917Z,10.66
2023-03-17T19:46:26.955Z,10.66
2023-03-17T19:48:29.132Z,10.63
2023-03-17T19:50:31.588Z,10.65
2023-03-17T19:52:33.376Z,10.63
2023-03-17T19:54:35.584Z,10.63
2023-03-17T19:56:41.462Z,10.63
2023-03-17T19:58:43.724Z,10.61
2023-03-17T20:00:45.791Z,10.60
2023-03-17T20:02:47.392Z,10.59
2023-03-17T20:04:49.831Z,10.57
2023-03-17T20:06:51.504Z,10.57
2023-03-17T20:08:53.050Z,10.55
2023-03-17T20:10:54.726Z,10.55
2023-03-17T20:12:58.628Z,10.53
2023-03-17T20:15:00.688Z,10.52
2023-03-17T20:17:02.689Z,10.51
2023-03-17T20:19:04.539Z,10.50
2023-03-17T20:21:11.130Z,10.50
2023-03-17T20:23:13.200Z,10.48
2023-03-17T20:25:15.086Z,10.47
2023-03-17T20:27:19.181Z,10.43
2023-03-17T20:29:22.267Z,10.44
2023-03-17T20:31:23.979Z,10.42
2023-03-17T20:33:25.692Z,10.39
2023-03-17T20:35:27.284Z,10.38
2023-03-17T20:37:29.431Z,10.36
2023-03-17T20:39:33.723Z,10.34
2023-03-17T20:41:35.757Z,10.35
2023-03-17T20:43:37.835Z,10.31
2023-03-17T20:45:40.747Z,10.30
2023-03-17T20:47:42.404Z,10.27
2023-03-17T20:49:43.990Z,10.23
2023-03-17T20:51:45.954Z,10.22
2023-03-17T20:53:49.238Z,10.21
2023-03-17T20:55:51.057Z,10.17
2023-03-17T20:57:52.854Z,10.16
2023-03-17T20:59:54.467Z,10.14
2023-03-17T21:01:57.619Z,10.12
2023-03-17T21:04:00.190Z,10.09
2023-03-17T21:06:02.090Z,10.08
2023-03-17T21:08:04.603Z,10.05
2023-03-17T21:10:06.595Z,10.04
2023-03-17T21:12:13.913Z,10.03
2023-03-17T21:14:15.714Z,10.02
2023-03-17T21:16:20.309Z,10.00
2023-03-17T21:18:24.157Z,9.97
2023-03-17T21:20:26.049Z,9.95
2023-03-17T21:22:28.072Z,9.95
2023-03-17T21:24:31.816Z,9.94
2023-03-17T21:26:33.662Z,9.93
2023-03-17T21:28:36.529Z,9.91
2023-03-17T21:30:38.326Z,9.90
2023-03-17T21:32:40.815Z,9.89
2023-03-17T21:34:44.210Z,9.87
2023-03-17T21:36:45.943Z,9.87
2023-03-17T21:38:47.752Z,9.86
2023-03-17T21:40:49.652Z,9.85
2023-03-17T21:42:51.406Z,9.83
2023-03-17T21:44:53.364Z,9.82
2023-03-17T21:46:55.531Z,9.82
2023-03-17T21:48:57.534Z,9.79
2023-03-17T21:51:00.716Z,9.79
2023-03-17T21:53:02.533Z,9.78
2023-03-17T21:55:05.846Z,9.77
2023-03-17T21:57:07.519Z,9.76
2023-03-17T21:59:11.588Z,9.74
2023-03-17T22:01:13.675Z,9.72
2023-03-17T22:03:16.152Z,9.71
2023-03-17T22:05:18.307Z,9.71
2023-03-17T22:07:21.920Z,9.70
2023-03-17T22:09:25.420Z,9.69
2023-03-17T22:11:27.206Z,9.69
2023-03-17T22:13:29.049Z,9.68
2023-03-17T22:15:30.636Z,9.68
2023-03-17T22:17:35.187Z,9.67
2023-03-17T22:19:36.969Z,9.65
2023-03-17T22:21:38.586Z,9.66
2023-03-17T22:23:42.947Z,9.65
2023-03-17T22:25:44.826Z,9.63
2023-03-17T22:27:46.678Z,9.63
2023-03-17T22:29:48.536Z,9.62
2023-03-17T22:31:50.186Z,9.61
2023-03-17T22:33:53.783Z,9.60
2023-03-17T22:35:55.393Z,9.61
2023-03-17T22:37:56.990Z,9.59
2023-03-17T22:40:01.196Z,9.57
2023-03-17T22:42:03.190Z,9.57
2023-03-17T22:44:06.733Z,9.56
2023-03-17T22:46:09.537Z,9.55
2023-03-17T22:48:13.252Z,9.54
2023-03-17T22:50:14.787Z,9.52
2023-03-17T22:52:16.984Z,9.52
2023-03-17T22:54:18.859Z,9.50
2023-03-17T22:56:22.157Z,9.50
2023-03-17T22:58:24.167Z,9.50
2023-03-17T23:00:25.932Z,9.47
2023-03-17T23:02:27.694Z,9.47
2023-03-17T23:04:29.273Z,9.45
2023-03-17T23:06:31.171Z,9.44
2023-03-17T23:08:36.398Z,9.42
2023-03-17T23:10:39.290Z,9.42
2023-03-17T23:12:43.953Z,9.41
2023-03-17T23:14:45.536Z,9.40
2023-03-17T23:16:47.105Z,9.38
2023-03-17T23:18:49.426Z,9.36
2023-03-17T23:20:51.554Z,9.35
2023-03-17T23:22:53.671Z,9.34
2023-03-17T23:24:56.284Z,9.33
2023-03-17T23:26:58.167Z,9.31
2023-03-17T23:29:02.088Z,9.29
2023-03-17T23:31:04.279Z,9.28
2023-03-17T23:33:06.136Z,9.26
2023-03-17T23:35:09.354Z,9.26
2023-03-17T23:37:11.356Z,9.26
2023-03-17T23:39:13.344Z,9.25
2023-03-17T23:41:15.620Z,9.22
2023-03-17T23:43:17.885Z,9.22
2023-03-17T23:45:21.752Z,9.20
2023-03-17T23:47:23.841Z,9.18
2023-03-17T23:49:25.757Z,9.18
2023-03-17T23:51:27.573Z,9.17
2023-03-17T23:53:29.362Z,9.15
2023-03-17T23:55:31.636Z,9.14
2023-03-17T23:57:33.955Z,9.13
2023-03-17T23:59:35.877Z,9.13
